Time;durP1;ratioP1;P1;durP2;ratioP2;P2;SDS_P1;SDS_P2;PMS_P1;PMS_P2;Temp;Humidity;BMP_temperature;BMP_pressure;BME280_temperature;BME280_humidity;BME280_pressure;Samples;Min_cycle;Max_cycle;Signal;HPM_P1;HPM_P2
2023/10/19 00:00:56;;;;;;;0.50;0.50;;;;;;;10.39;91.37;96904.91;4965726;28;20049;-83
2023/10/19 00:03:24;;;;;;;0.50;0.50;;;;;;;10.59;90.88;96904.94;4967614;28;20042;-82
2023/10/19 00:05:49;;;;;;;0.50;0.50;;;;;;;10.54;90.54;96912.03;4970573;28;20285;-81
2023/10/19 00:08:17;;;;;;;0.50;0.50;;;;;;;10.39;90.78;96912.00;4971163;28;21118;-81
2023/10/19 00:10:48;;;;;;;0.40;0.40;;;;;;;10.39;90.48;96914.69;4973531;28;20043;-81
2023/10/19 00:13:14;;;;;;;0.50;0.50;;;;;;;10.45;90.40;96906.72;4971255;28;20579;-84
2023/10/19 00:15:46;;;;;;;0.50;0.50;;;;;;;10.45;89.93;96912.94;4970029;28;20567;-81
2023/10/19 00:23:14;;;;;;;;;;;;;;;10.33;90.23;96909.34;4967352;28;20477;-81
2023/10/19 00:25:42;;;;;;;0.50;0.50;;;;;;;10.30;90.72;96912.94;4969098;28;20277;-80
2023/10/19 00:28:08;;;;;;;0.50;0.50;;;;;;;10.37;90.23;96906.69;4967679;28;20027;-79
2023/10/19 00:30:37;;;;;;;0.50;0.50;;;;;;;10.29;90.55;96895.13;4971429;28;20174;-82
2023/10/19 00:33:15;;;;;;;0.50;0.50;;;;;;;10.32;90.74;96905.81;4968780;28;20037;-81
2023/10/19 00:35:47;;;;;;;0.50;0.50;;;;;;;10.28;90.60;96901.34;4991048;28;20090;-81
2023/10/19 00:40:52;;;;;;;0.50;0.50;;;;;;;10.31;91.04;96904.03;4998938;28;20034;-81
2023/10/19 00:43:42;;;;;;;0.50;0.50;;;;;;;10.30;91.15;96894.25;4990364;28;20069;-79
2023/10/19 00:48:54;;;;;;;0.52;0.52;;;;;;;10.19;91.49;96888.88;4971710;28;20404;-79
2023/10/19 00:54:14;;;;;;;0.50;0.50;;;;;;;10.39;91.39;96886.25;4986737;28;20477;-80
2023/10/19 00:56:55;;;;;;;0.50;0.50;;;;;;;10.35;90.94;96889.81;4970646;28;20038;-80
2023/10/19 00:59:23;;;;;;;0.50;0.50;;;;;;;10.35;91.25;96892.50;4968709;28;20432;-80
2023/10/19 01:01:54;;;;;;;0.50;0.50;;;;;;;10.35;91.42;96878.25;4984764;28;20043;-80
2023/10/19 01:04:22;;;;;;;0.50;0.50;;;;;;;10.40;91.32;96885.38;5001738;23;20042;-78
2023/10/19 01:07:04;;;;;;;0.50;0.50;;;;;;;10.49;91.37;96888.03;5004338;28;20046;-78
2023/10/19 01:09:34;;;;;;;0.50;0.50;;;;;;;10.43;91.54;96865.81;5002466;28;20038;-78
2023/10/19 01:12:06;;;;;;;0.45;0.45;;;;;;;10.51;91.82;96869.38;5001984;28;20042;-75
2023/10/19 01:14:32;;;;;;;0.40;0.40;;;;;;;10.45;91.93;96856.94;5005765;28;20042;-75
2023/10/19 01:17:00;;;;;;;0.50;0.50;;;;;;;10.50;92.13;96857.81;5003196;28;20045;-77
2023/10/19 01:19:27;;;;;;;0.50;0.50;;;;;;;10.58;91.94;96851.56;5004983;28;20617;-76
2023/10/19 01:21:59;;;;;;;0.50;0.50;;;;;;;10.51;92.08;96840.94;5005503;28;20045;-77
2023/10/19 01:24:46;;;;;;;0.40;0.40;;;;;;;10.63;92.06;96844.47;4996680;28;20081;-76
2023/10/19 01:27:10;;;;;;;0.50;0.50;;;;;;;10.60;91.81;96844.47;5001040;28;20057;-76
2023/10/19 01:29:38;;;;;;;0.50;0.50;;;;;;;10.63;92.03;96844.47;5007469;28;20054;-78
2023/10/19 01:32:08;;;;;;;0.50;0.50;;;;;;;10.63;92.14;96826.66;5000553;28;20046;-76
2023/10/19 01:34:35;;;;;;;0.40;0.40;;;;;;;10.66;92.42;96821.34;5005000;28;20026;-75
2023/10/19 01:37:04;;;;;;;0.50;0.50;;;;;;;10.77;92.26;96818.66;5001668;28;20045;-77
2023/10/19 01:39:38;;;;;;;0.40;0.40;;;;;;;10.73;92.35;96824.88;5002114;28;20053;-77
2023/10/19 01:42:04;;;;;;;0.43;0.43;;;;;;;10.87;92.16;96814.16;4998430;28;20655;-78
2023/10/19 01:44:31;;;;;;;0.47;0.47;;;;;;;10.90;92.48;96809.72;5016039;28;20057;-78
2023/10/19 01:46:57;;;;;;;0.50;0.50;;;;;;;10.94;92.34;96813.28;5017592;28;20061;-78
2023/10/19 01:49:30;;;;;;;0.40;0.40;;;;;;;11.00;92.53;96806.13;5004145;28;20044;-78
2023/10/19 01:51:56;;;;;;;0.40;0.40;;;;;;;11.10;92.49;96801.66;5004848;28;20029;-77
2023/10/19 01:54:24;;;;;;;0.43;0.43;;;;;;;11.17;92.42;96798.06;4996194;28;20452;-77
2023/10/19 01:56:56;;;;;;;0.40;0.40;;;;;;;11.20;92.28;96791.81;5002685;28;20029;-78
2023/10/19 01:59:29;;;;;;;0.40;0.40;;;;;;;11.30;92.23;96799.75;4999680;28;20045;-76
2023/10/19 02:01:56;;;;;;;0.47;0.47;;;;;;;11.35;92.09;96793.53;5000290;28;20041;-77
2023/10/19 02:04:21;;;;;;;0.40;0.40;;;;;;;11.39;92.12;96793.50;5001949;28;20045;-77
2023/10/19 02:06:48;;;;;;;0.40;0.40;;;;;;;11.44;92.46;96794.34;5013820;28;20192;-76
2023/10/19 02:09:25;;;;;;;0.40;0.40;;;;;;;11.51;91.96;96788.09;5002062;28;20033;-76
2023/10/19 02:11:55;;;;;;;0.40;0.40;;;;;;;11.63;92.43;96786.25;5017269;28;20042;-76
2023/10/19 02:14:21;;;;;;;0.40;0.40;;;;;;;11.63;92.07;96786.25;5000843;28;20045;-76
2023/10/19 02:16:52;;;;;;;0.40;0.40;;;;;;;11.62;92.39;96784.47;5001973;28;20398;-76
2023/10/19 02:19:20;;;;;;;0.40;0.40;;;;;;;11.63;92.28;96775.56;5001668;28;20707;-76
2023/10/19 02:21:48;;;;;;;0.40;0.40;;;;;;;11.75;92.31;96775.50;4999769;28;20714;-76
2023/10/19 02:24:14;;;;;;;0.40;0.40;;;;;;;11.77;92.17;96763.88;5002808;28;20085;-76
2023/10/19 02:26:41;;;;;;;0.40;0.40;;;;;;;11.81;92.49;96764.75;5020327;28;20041;-76
2023/10/19 02:29:07;;;;;;;0.40;0.40;;;;;;;11.82;92.58;96758.53;5004161;28;20156;-76
2023/10/19 02:31:37;;;;;;;0.40;0.40;;;;;;;11.95;92.25;96748.66;5002008;28;20050;-76
2023/10/19 02:34:04;;;;;;;0.40;0.40;;;;;;;12.02;92.27;96743.22;4996168;28;20037;-77
2023/10/19 02:36:31;;;;;;;0.40;0.40;;;;;;;11.95;92.35;96736.16;5016816;28;20175;-77
2023/10/19 02:38:59;;;;;;;0.40;0.40;;;;;;;12.03;92.46;96738.78;5005200;28;20038;-77
2023/10/19 02:41:26;;;;;;;0.40;0.40;;;;;;;11.98;92.48;96732.59;4997899;28;20060;-77
2023/10/19 02:44:08;;;;;;;0.40;0.40;;;;;;;12.05;92.44;96732.50;5000256;28;20049;-77
2023/10/19 02:46:34;;;;;;;0.40;0.40;;;;;;;12.04;92.02;96729.88;4986937;28;20034;-77
2023/10/19 02:49:04;;;;;;;0.30;0.30;;;;;;;12.05;92.46;96732.50;5002418;28;20036;-77
2023/10/19 02:51:33;;;;;;;0.40;0.40;;;;;;;12.00;92.38;96729.00;5017651;28;20042;-77
2023/10/19 02:54:02;;;;;;;0.40;0.40;;;;;;;11.98;92.50;96735.28;4999119;28;20372;-77
2023/10/19 02:56:29;;;;;;;0.40;0.40;;;;;;;12.02;92.49;96727.19;4998940;28;20099;-77
2023/10/19 02:59:03;;;;;;;0.40;0.40;;;;;;;11.98;92.55;96728.13;4998255;28;20364;-77
2023/10/19 03:01:34;;;;;;;0.40;0.40;;;;;;;11.97;93.00;96717.44;5018594;28;20065;-77
2023/10/19 03:04:01;;;;;;;0.40;0.40;;;;;;;12.02;93.13;96720.97;4998608;28;20042;-77
2023/10/19 03:06:33;;;;;;;0.40;0.40;;;;;;;12.03;92.92;96720.09;5002849;28;20066;-78
2023/10/19 03:09:05;;;;;;;0.30;0.30;;;;;;;11.91;92.69;96718.38;4999985;28;20112;-77
2023/10/19 03:11:34;;;;;;;0.30;0.30;;;;;;;12.00;93.12;96723.66;5001808;28;20045;-77
2023/10/19 03:14:01;;;;;;;0.35;0.35;;;;;;;12.01;93.01;96728.09;5002247;28;20034;-77
2023/10/19 03:16:30;;;;;;;0.30;0.30;;;;;;;12.02;93.01;96727.19;5002158;28;20037;-77
2023/10/19 03:18:56;;;;;;;0.38;0.38;;;;;;;12.00;92.96;96731.66;5018284;28;20033;-77
2023/10/19 03:21:26;;;;;;;0.32;0.32;;;;;;;12.04;92.99;96725.41;4997222;28;20057;-77
2023/10/19 03:23:53;;;;;;;0.40;0.40;;;;;;;11.88;92.97;96723.78;5000293;28;20033;-77
2023/10/19 03:26:36;;;;;;;0.40;0.40;;;;;;;11.83;92.60;96730.91;5006386;28;20033;-77
2023/10/19 03:29:14;;;;;;;0.40;0.40;;;;;;;11.73;92.86;96721.16;5018997;28;20033;-77
2023/10/19 03:31:48;;;;;;;0.40;0.40;;;;;;;11.56;93.00;96710.63;5005434;28;20050;-77
2023/10/19 03:34:18;;;;;;;0.40;0.40;;;;;;;11.59;92.85;96721.28;5003543;28;20129;-77
2023/10/19 03:36:44;;;;;;;0.40;0.40;;;;;;;11.50;93.15;96710.69;5003135;28;20474;-77
2023/10/19 03:39:14;;;;;;;0.40;0.40;;;;;;;11.22;93.38;96701.97;5018267;28;20049;-77
2023/10/19 03:41:42;;;;;;;0.40;0.40;;;;;;;11.24;93.71;96698.38;5004046;28;20187;-76
2023/10/19 03:44:42;;;;;;;0.40;0.40;;;;;;;11.08;93.69;96701.16;5018894;28;20034;-76
2023/10/19 03:46:59;;;;;;;0.40;0.40;;;;;;;10.92;93.72;96700.31;5001414;28;20460;-76
2023/10/19 03:49:30;;;;;;;0.40;0.40;;;;;;;10.80;93.44;96701.28;5008041;28;20125;-77
2023/10/19 03:51:59;;;;;;;0.40;0.40;;;;;;;10.79;93.68;96703.06;5002149;28;20113;-77
2023/10/19 03:54:26;;;;;;;0.40;0.40;;;;;;;10.76;93.61;96705.72;5003953;28;20037;-77
2023/10/19 03:56:52;;;;;;;0.40;0.40;;;;;;;10.63;93.83;96701.34;4990182;28;20244;-77
2023/10/19 03:59:20;;;;;;;0.40;0.40;;;;;;;10.59;93.45;96690.69;5003998;28;20038;-77
2023/10/19 04:01:45;;;;;;;;;;;;;;;10.62;94.02;96685.34;5003145;28;20038;-77
2023/10/19 04:04:11;;;;;;;0.40;0.40;;;;;;;10.38;94.12;96692.53;5005380;28;20326;-76
2023/10/19 04:06:40;;;;;;;0.40;0.40;;;;;;;10.32;94.16;96684.56;5005251;28;20091;-76
2023/10/19 04:09:06;;;;;;;0.40;0.40;;;;;;;10.21;94.16;96681.91;5003805;28;20437;-76
2023/10/19 04:11:33;;;;;;;0.40;0.40;;;;;;;10.33;94.95;96681.00;5004755;28;20034;-76
2023/10/19 04:14:03;;;;;;;0.40;0.40;;;;;;;10.15;94.50;96675.69;5002948;28;20034;-76
2023/10/19 04:16:30;;;;;;;0.50;0.50;;;;;;;10.06;94.51;96673.94;5002446;28;20755;-78
2023/10/19 04:18:57;;;;;;;0.50;0.50;;;;;;;10.09;94.92;96673.03;5005294;28;20045;-77
2023/10/19 04:21:23;;;;;;;0.50;0.50;;;;;;;10.08;94.66;96663.28;5002126;28;20045;-77
2023/10/19 04:23:48;;;;;;;0.40;0.40;;;;;;;10.27;95.15;96667.72;5003080;28;20042;-77
2023/10/19 04:26:18;;;;;;;0.40;0.40;;;;;;;10.06;94.79;96671.28;5004000;28;20057;-77
2023/10/19 04:28:50;;;;;;;0.47;0.47;;;;;;;10.12;95.10;96660.59;5005782;28;20125;-77
2023/10/19 04:31:17;;;;;;;0.50;0.50;;;;;;;10.05;95.33;96655.28;5005655;28;20120;-77
2023/10/19 04:33:45;;;;;;;0.50;0.50;;;;;;;10.13;94.88;96649.06;5005259;28;20080;-76
2023/10/19 04:36:12;;;;;;;0.50;0.50;;;;;;;10.02;95.16;96642.88;5003670;28;20050;-77
2023/10/19 04:38:38;;;;;;;0.50;0.50;;;;;;;9.86;94.81;96642.00;5018121;28;20037;-76
2023/10/19 04:41:12;;;;;;;0.50;0.50;;;;;;;9.79;95.09;96637.59;5004583;28;20137;-76
2023/10/19 04:43:39;;;;;;;0.43;0.43;;;;;;;9.83;95.10;96643.81;5000344;28;20221;-76
2023/10/19 04:46:08;;;;;;;0.55;0.55;;;;;;;9.84;95.09;96634.91;5003990;28;20105;-76
2023/10/19 04:48:35;;;;;;;0.57;0.57;;;;;;;9.76;95.08;96641.13;5002568;28;20069;-77
2023/10/19 04:51:03;;;;;;;0.50;0.50;;;;;;;9.81;94.89;96638.47;5003051;28;20046;-77
2023/10/19 04:53:30;;;;;;;0.50;0.50;;;;;;;9.80;95.14;96644.69;5003139;28;20076;-77
2023/10/19 04:55:55;;;;;;;0.50;0.50;;;;;;;9.64;95.08;96638.50;5005815;28;20041;-76
2023/10/19 04:58:21;;;;;;;0.50;0.50;;;;;;;9.58;94.78;96643.84;5003703;28;20072;-76
2023/10/19 05:00:47;;;;;;;0.50;0.50;;;;;;;9.49;94.91;96639.41;5001537;28;20037;-76
2023/10/19 05:03:18;;;;;;;0.50;0.50;;;;;;;9.42;95.25;96642.94;5000827;28;20038;-77
2023/10/19 05:05:44;;;;;;;0.50;0.50;;;;;;;9.42;95.19;96637.59;4999821;28;20053;-78
2023/10/19 05:08:09;;;;;;;0.50;0.50;;;;;;;9.72;95.38;96634.03;5001367;28;20038;-77
2023/10/19 05:10:35;;;;;;;0.50;0.50;;;;;;;9.59;94.91;96634.94;4997136;28;20038;-78
2023/10/19 05:13:00;;;;;;;0.52;0.52;;;;;;;9.54;94.95;96627.88;4998807;28;20041;-78
2023/10/19 05:15:26;;;;;;;0.50;0.50;;;;;;;9.43;95.49;96623.41;5001844;28;20499;-78
2023/10/19 05:17:51;;;;;;;0.50;0.50;;;;;;;9.18;95.59;96621.63;5013392;28;20439;-78
2023/10/19 05:20:17;;;;;;;0.50;0.50;;;;;;;9.16;95.43;96629.63;5005042;28;20061;-77
2023/10/19 05:22:42;;;;;;;0.50;0.50;;;;;;;9.12;95.29;96630.50;4997203;28;20050;-79
2023/10/19 05:25:08;;;;;;;0.40;0.40;;;;;;;9.29;95.89;96632.28;5004842;28;20034;-79
2023/10/19 05:27:33;;;;;;;0.50;0.50;;;;;;;9.00;95.69;96639.34;5003385;28;20729;-79
2023/10/19 05:30:00;;;;;;;0.40;0.40;;;;;;;9.31;95.86;96638.50;5000184;28;20037;-78
2023/10/19 05:32:25;;;;;;;0.50;0.50;;;;;;;8.96;96.13;96645.56;4999767;28;20030;-80
2023/10/19 05:34:51;;;;;;;0.50;0.50;;;;;;;9.13;96.13;96642.03;5001454;28;20057;-78
2023/10/19 05:37:17;;;;;;;0.50;0.50;;;;;;;8.90;96.07;96650.84;5004104;28;20625;-78
2023/10/19 05:39:44;;;;;;;0.50;0.50;;;;;;;8.89;96.12;96638.44;5005749;28;20041;-78
2023/10/19 05:42:09;;;;;;;0.50;0.50;;;;;;;9.06;95.94;96645.59;5001309;28;20060;-79
2023/10/19 05:44:35;;;;;;;0.50;0.50;;;;;;;9.00;96.19;96649.09;5000125;28;20973;-79
2023/10/19 05:47:00;;;;;;;0.40;0.40;;;;;;;9.06;96.53;96646.47;5003696;28;20053;-79
2023/10/19 05:49:26;;;;;;;0.50;0.50;;;;;;;9.04;96.50;96642.03;5005237;28;20566;-79
2023/10/19 05:51:52;;;;;;;0.50;0.50;;;;;;;8.89;96.44;96643.75;5004788;28;20045;-79
2023/10/19 05:54:18;;;;;;;0.50;0.50;;;;;;;8.99;96.36;96653.53;5007522;28;20045;-79
2023/10/19 05:56:43;;;;;;;0.50;0.50;;;;;;;8.96;96.26;96653.53;5001339;28;20784;-78
2023/10/19 05:59:10;;;;;;;0.50;0.50;;;;;;;8.85;96.18;96660.59;5006406;28;20043;-79
2023/10/19 06:01:37;;;;;;;0.53;0.53;;;;;;;8.79;96.16;96662.34;5006566;28;20779;-79
2023/10/19 06:04:03;;;;;;;0.60;0.60;;;;;;;8.79;96.41;96665.03;5002452;28;20061;-79
2023/10/19 06:06:30;;;;;;;0.50;0.50;;;;;;;8.85;96.48;96662.38;5004358;28;20470;-79
2023/10/19 06:08:55;;;;;;;0.60;0.60;;;;;;;9.07;96.46;96664.19;5004004;28;20445;-79
2023/10/19 06:11:22;;;;;;;0.55;0.55;;;;;;;9.26;96.14;96667.78;5003606;28;20461;-79
2023/10/19 06:13:47;;;;;;;0.60;0.60;;;;;;;9.16;96.05;96668.66;5007061;28;20045;-79
2023/10/19 06:16:14;;;;;;;0.50;0.50;;;;;;;9.16;96.11;96668.66;5005252;28;20038;-79
2023/10/19 06:18:39;;;;;;;0.60;0.60;;;;;;;9.21;96.36;96661.56;5005681;28;20076;-79
2023/10/19 06:21:05;;;;;;;0.50;0.50;;;;;;;9.14;96.19;96652.66;5005950;28;20414;-79
2023/10/19 06:23:31;;;;;;;0.50;0.50;;;;;;;9.13;96.16;96661.53;5006836;28;20431;-79
2023/10/19 06:25:57;;;;;;;0.50;0.50;;;;;;;9.31;95.86;96652.69;5004405;28;20101;-78
2023/10/19 06:28:22;;;;;;;0.43;0.43;;;;;;;9.38;96.14;96646.47;5003531;28;20030;-78
2023/10/19 06:30:48;;;;;;;0.50;0.50;;;;;;;9.41;95.67;96651.81;4994810;28;20057;-78
2023/10/19 06:33:13;;;;;;;0.50;0.50;;;;;;;9.44;95.89;96666.91;5002976;28;20044;-78
2023/10/19 06:35:40;;;;;;;0.50;0.50;;;;;;;9.37;95.70;96662.44;5005637;28;20751;-79
2023/10/19 06:38:08;;;;;;;0.50;0.50;;;;;;;9.35;96.04;96670.44;5006654;28;20042;-79
2023/10/19 06:40:36;;;;;;;0.50;0.50;;;;;;;9.42;95.74;96664.22;5004927;28;20038;-78
2023/10/19 06:43:02;;;;;;;0.60;0.60;;;;;;;9.50;95.55;96662.47;5005543;28;20046;-80
2023/10/19 06:45:31;;;;;;;0.60;0.60;;;;;;;9.60;95.37;96663.34;5004140;28;20041;-79
2023/10/19 06:47:57;;;;;;;0.50;0.50;;;;;;;9.71;95.49;96660.66;5009248;28;20475;-79
2023/10/19 06:50:25;;;;;;;0.50;0.50;;;;;;;9.85;95.04;96658.88;5004914;28;20057;-79
2023/10/19 06:52:51;;;;;;;0.50;0.50;;;;;;;10.01;95.25;96649.06;5006772;28;20026;-79
2023/10/19 06:55:21;;;;;;;0.50;0.50;;;;;;;10.14;94.94;96652.59;5004050;28;20137;-79
2023/10/19 06:57:51;;;;;;;0.50;0.50;;;;;;;10.11;94.31;96655.25;5006064;28;20404;-79
2023/10/19 07:00:21;;;;;;;0.40;0.40;;;;;;;10.22;94.10;96656.13;5009511;28;20046;-79
2023/10/19 07:02:48;;;;;;;0.50;0.50;;;;;;;10.41;94.11;96655.22;5010529;28;20046;-79
2023/10/19 07:05:18;;;;;;;0.50;0.50;;;;;;;10.52;93.95;96652.50;5008097;28;20041;-79
2023/10/19 07:07:45;;;;;;;0.50;0.50;;;;;;;10.49;93.34;96649.84;5007457;28;20046;-79
2023/10/19 07:10:15;;;;;;;0.50;0.50;;;;;;;10.65;93.23;96650.69;5005031;28;20048;-80
2023/10/19 07:12:58;;;;;;;0.40;0.40;;;;;;;10.85;93.03;96646.13;5007741;28;20269;-80
2023/10/19 07:15:25;;;;;;;0.50;0.50;;;;;;;10.89;92.82;96647.88;5008759;28;20064;-79
2023/10/19 07:17:58;;;;;;;0.50;0.50;;;;;;;10.92;92.52;96647.88;5001566;28;20040;-80
2023/10/19 07:20:32;;;;;;;0.40;0.40;;;;;;;11.06;92.34;96645.09;5007495;28;20432;-80
2023/10/19 07:23:03;;;;;;;0.50;0.50;;;;;;;11.12;92.15;96642.41;5008209;28;20065;-81
2023/10/19 07:25:29;;;;;;;0.40;0.40;;;;;;;11.12;91.75;96645.09;5006633;28;20057;-80
2023/10/19 07:27:55;;;;;;;0.50;0.50;;;;;;;11.18;91.80;96649.50;5008234;28;20042;-81
2023/10/19 07:30:22;;;;;;;0.40;0.40;;;;;;;11.16;91.78;96638.84;5007171;28;20951;-79
2023/10/19 07:32:54;;;;;;;0.50;0.50;;;;;;;11.12;91.83;96639.75;5006687;28;20041;-79
2023/10/19 07:35:22;;;;;;;0.40;0.40;;;;;;;11.19;92.03;96630.78;5007743;28;20034;-78
2023/10/19 07:37:49;;;;;;;0.40;0.40;;;;;;;11.27;91.98;96641.41;5006836;28;20049;-78
2023/10/19 07:40:15;;;;;;;;;;;;;;;11.28;91.76;96636.06;5005004;28;20193;-78
2023/10/19 07:42:42;;;;;;;0.50;0.50;;;;;;;11.36;91.72;96638.69;5007929;28;20033;-78
2023/10/19 07:45:11;;;;;;;0.50;0.50;;;;;;;11.47;91.98;96646.59;5008050;28;20030;-78
2023/10/19 07:47:40;;;;;;;0.40;0.40;;;;;;;11.44;92.05;96636.81;5006708;28;20046;-78
2023/10/19 07:50:15;;;;;;;0.40;0.40;;;;;;;11.70;92.09;96638.41;5006719;28;20046;-78
2023/10/19 07:52:43;;;;;;;0.40;0.40;;;;;;;11.87;91.56;96632.91;5022299;28;20042;-78
2023/10/19 07:55:09;;;;;;;0.40;0.40;;;;;;;12.15;91.43;96628.19;5006506;28;20259;-78
2023/10/19 07:57:35;;;;;;;0.45;0.45;;;;;;;12.38;91.18;96642.19;5006423;28;20052;-79
2023/10/19 08:00:01;;;;;;;0.40;0.40;;;;;;;12.54;90.51;96625.03;5006742;28;20034;-79
2023/10/19 08:02:28;;;;;;;0.40;0.40;;;;;;;12.74;90.01;96622.13;5005913;28;20578;-79
2023/10/19 08:04:54;;;;;;;;;;;;;;;12.88;89.81;96624.59;5008124;28;20033;-79
2023/10/19 08:07:19;;;;;;;0.40;0.40;;;;;;;13.07;89.33;96628.78;5005567;28;20619;-79
2023/10/19 08:09:45;;;;;;;0.40;0.40;;;;;;;13.29;89.01;96615.13;5003802;28;20769;-80
2023/10/19 08:12:13;;;;;;;0.40;0.40;;;;;;;13.25;88.61;96616.06;5005727;28;20056;-79
2023/10/19 08:14:39;;;;;;;0.40;0.40;;;;;;;13.53;88.73;96619.19;5005182;28;20486;-79
2023/10/19 08:17:05;;;;;;;0.40;0.40;;;;;;;13.76;88.31;96611.66;5005846;28;20072;-78
2023/10/19 08:19:31;;;;;;;0.40;0.40;;;;;;;14.14;87.71;96615.44;5006050;28;20459;-79
2023/10/19 08:21:57;;;;;;;0.35;0.35;;;;;;;14.66;86.59;96613.53;5006713;28;20148;-79
2023/10/19 08:24:23;;;;;;;0.35;0.35;;;;;;;14.99;85.33;96602.03;5004273;28;20515;-79
2023/10/19 08:26:50;;;;;;;0.30;0.30;;;;;;;15.39;85.47;96603.84;5005412;28;20457;-79
2023/10/19 08:29:16;;;;;;;0.30;0.30;;;;;;;15.39;84.50;96606.53;5006159;28;20045;-79
2023/10/19 08:31:44;;;;;;;0.30;0.30;;;;;;;15.97;83.44;96597.00;5006554;28;20494;-79
2023/10/19 08:34:13;;;;;;;0.30;0.30;;;;;;;16.43;83.79;96590.34;5005341;28;20084;-79
2023/10/19 08:36:38;;;;;;;0.20;0.20;;;;;;;16.43;83.74;96590.34;4996017;28;20045;-80
2023/10/19 08:39:08;;;;;;;0.20;0.20;;;;;;;16.33;82.80;96592.44;5006298;28;20041;-79
2023/10/19 08:41:35;;;;;;;0.20;0.20;;;;;;;16.38;83.52;96590.50;5006026;28;20034;-79
2023/10/19 08:44:11;;;;;;;0.20;0.20;;;;;;;16.38;83.76;96589.59;5005400;28;20572;-79
2023/10/19 08:46:47;;;;;;;0.20;0.20;;;;;;;16.58;82.91;96589.94;5006315;28;20072;-79
2023/10/19 08:49:14;;;;;;;0.20;0.20;;;;;;;16.78;83.17;96585.81;5003969;28;20037;-80
2023/10/19 08:51:44;;;;;;;0.20;0.20;;;;;;;17.01;81.38;96590.47;5005747;28;20084;-79
2023/10/19 08:54:13;;;;;;;0.20;0.20;;;;;;;16.97;80.79;96587.03;5004063;28;20065;-79
2023/10/19 08:56:41;;;;;;;0.20;0.20;;;;;;;17.94;80.34;96582.97;5022083;28;20042;-79
2023/10/19 08:59:15;;;;;;;0.20;0.20;;;;;;;18.70;77.26;96587.47;4988075;28;20668;-80
2023/10/19 09:01:44;;;;;;;0.20;0.20;;;;;;;19.43;73.88;96585.53;5008028;28;20038;-79
2023/10/19 09:04:11;;;;;;;0.20;0.20;;;;;;;19.88;71.70;96582.81;5005766;28;20026;-79
2023/10/19 09:06:43;;;;;;;0.20;0.20;;;;;;;19.85;71.72;96582.06;5008056;28;20065;-79
2023/10/19 09:09:25;;;;;;;0.10;0.10;;;;;;;19.98;71.11;96586.00;5006277;28;20053;-80
2023/10/19 09:11:54;;;;;;;0.10;0.10;;;;;;;20.17;70.04;96583.38;5006715;28;20034;-79
2023/10/19 09:14:46;;;;;;;0.10;0.10;;;;;;;20.11;70.63;96578.22;5007143;28;20042;-80
2023/10/19 09:17:13;;;;;;;0.10;0.10;;;;;;;20.29;66.81;96569.31;5005543;28;20057;-80
2023/10/19 09:19:40;;;;;;;;;;;;;;;19.63;69.29;96568.53;5002978;28;20038;-79
2023/10/19 09:22:16;;;;;;;0.10;0.10;;;;;;;19.23;68.43;96562.88;5007407;28;19917;-79
2023/10/19 09:24:43;;;;;;;0.10;0.10;;;;;;;19.59;66.77;96561.44;5008056;28;20159;-80
2023/10/19 09:27:08;;;;;;;;;;;;;;;20.58;63.50;96556.31;5005300;28;20088;-80
2023/10/19 09:29:34;;;;;;;0.10;0.10;;;;;;;21.18;61.71;96555.28;5007738;28;19909;-79
2023/10/19 09:32:03;;;;;;;0.10;0.10;;;;;;;20.87;60.61;96547.72;5005074;28;20118;-79
2023/10/19 09:34:33;;;;;;;0.10;0.10;;;;;;;21.63;58.40;96543.16;5008074;28;20049;-79
2023/10/19 09:37:03;;;;;;;0.10;0.10;;;;;;;21.80;57.69;96544.16;5003379;28;20137;-80
2023/10/19 09:39:35;;;;;;;0.10;0.10;;;;;;;22.38;55.78;96536.63;5007105;28;20037;-80
2023/10/19 09:42:12;;;;;;;0.00;0.00;;;;;;;21.99;56.01;96534.09;5007334;28;20124;-80
2023/10/19 09:44:54;;;;;;;0.10;0.10;;;;;;;22.28;55.24;96538.09;5016271;28;20100;-81
2023/10/19 09:47:30;;;;;;;0.10;0.10;;;;;;;22.48;55.26;96540.63;5007032;28;20060;-80
2023/10/19 09:49:57;;;;;;;0.10;0.10;;;;;;;22.56;53.97;96544.75;5003267;28;20079;-80
2023/10/19 09:52:24;;;;;;;0.10;0.10;;;;;;;22.33;55.24;96544.16;5012484;28;20081;-80
2023/10/19 09:54:59;;;;;;;0.10;0.10;;;;;;;21.92;55.19;96533.56;5007345;28;20037;-80
2023/10/19 09:57:51;;;;;;;0.10;0.10;;;;;;;21.77;56.27;96532.50;5006979;28;20092;-80
2023/10/19 10:00:23;;;;;;;0.10;0.10;;;;;;;21.62;57.95;96537.84;5005707;28;20050;-80
2023/10/19 10:02:50;;;;;;;0.10;0.10;;;;;;;21.55;57.98;96534.53;4999943;28;20382;-80
2023/10/19 10:05:43;;;;;;;0.10;0.10;;;;;;;21.21;59.61;96525.28;5007629;28;20512;-80
2023/10/19 10:08:17;;;;;;;0.10;0.10;;;;;;;21.37;56.92;96530.03;5007237;28;20092;-79
2023/10/19 10:10:50;;;;;;;0.10;0.10;;;;;;;20.61;59.00;96532.69;5002705;28;20068;-80
2023/10/19 10:13:24;;;;;;;0.10;0.10;;;;;;;21.44;55.06;96532.34;5003765;28;20044;-81
2023/10/19 10:15:55;;;;;;;0.10;0.10;;;;;;;21.98;55.83;96522.38;5002780;28;20037;-80
2023/10/19 10:18:24;;;;;;;0.10;0.10;;;;;;;21.80;55.14;96528.78;5001585;28;20073;-81
2023/10/19 10:21:05;;;;;;;0.10;0.10;;;;;;;22.49;53.83;96511.59;5007163;28;20033;-80
2023/10/19 10:23:34;;;;;;;0.10;0.10;;;;;;;20.88;56.99;96524.19;5006433;28;20045;-81
2023/10/19 10:26:00;;;;;;;0.10;0.10;;;;;;;20.47;57.20;96510.75;5005453;28;20030;-80
2023/10/19 10:28:29;;;;;;;0.10;0.10;;;;;;;20.27;59.87;96508.94;5015035;28;20045;-83
2023/10/19 10:31:07;;;;;;;0.20;0.20;;;;;;;21.15;57.81;96503.03;5001808;28;20045;-80
2023/10/19 10:33:39;;;;;;;0.10;0.10;;;;;;;19.88;59.63;96511.53;5005522;28;20045;-81
2023/10/19 10:36:08;;;;;;;0.10;0.10;;;;;;;20.21;59.33;96514.59;5007197;28;20037;-81
2023/10/19 10:38:37;;;;;;;0.17;0.17;;;;;;;20.08;59.59;96511.56;5007602;28;20033;-80
2023/10/19 10:41:04;;;;;;;0.10;0.10;;;;;;;20.39;60.18;96502.06;5007750;28;20058;-81
2023/10/19 10:43:30;;;;;;;0.10;0.10;;;;;;;20.41;60.73;96500.16;5007945;28;20120;-82
2023/10/19 10:46:08;;;;;;;0.10;0.10;;;;;;;20.38;59.03;96505.72;5008883;28;20034;-81
2023/10/19 10:48:36;;;;;;;0.10;0.10;;;;;;;19.93;59.49;96499.59;5005548;28;20042;-81
2023/10/19 10:51:01;;;;;;;0.10;0.10;;;;;;;20.15;58.97;96504.91;5006542;28;20038;-80
2023/10/19 10:53:27;;;;;;;0.10;0.10;;;;;;;20.27;59.32;96503.50;5005863;28;20089;-81
2023/10/19 10:55:53;;;;;;;0.10;0.10;;;;;;;20.54;58.30;96506.81;5007814;28;20120;-80
2023/10/19 10:58:21;;;;;;;0.20;0.20;;;;;;;20.70;58.11;96507.88;5005860;28;20505;-80
2023/10/19 11:00:49;;;;;;;0.20;0.20;;;;;;;20.73;56.87;96512.25;5022188;28;20465;-81
2023/10/19 11:03:15;;;;;;;0.10;0.10;;;;;;;20.71;57.68;96515.03;5005805;28;20076;-81
2023/10/19 11:05:41;;;;;;;;;;;;;;;20.69;56.96;96506.09;5006812;28;20049;-81
2023/10/19 11:08:13;;;;;;;0.10;0.10;;;;;;;20.85;56.54;96502.69;5006901;28;19956;-81
2023/10/19 11:10:42;;;;;;;0.10;0.10;;;;;;;20.29;57.71;96507.00;5004909;28;20050;-81
2023/10/19 11:13:09;;;;;;;0.10;0.10;;;;;;;19.74;60.16;96506.75;5022297;28;20389;-80
2023/10/19 11:15:36;;;;;;;0.10;0.10;;;;;;;19.54;59.70;96506.66;5006939;28;20042;-80
2023/10/19 11:18:02;;;;;;;0.10;0.10;;;;;;;19.73;60.49;96508.53;5005716;28;20038;-80
2023/10/19 11:20:28;;;;;;;0.10;0.10;;;;;;;19.57;61.31;96512.81;5006303;28;20419;-80
2023/10/19 11:22:56;;;;;;;0.10;0.10;;;;;;;19.78;60.80;96510.19;5006098;28;20133;-79
2023/10/19 11:25:30;;;;;;;0.10;0.10;;;;;;;19.70;62.14;96511.41;5021544;28;20030;-79
2023/10/19 11:27:57;;;;;;;0.10;0.10;;;;;;;19.43;62.34;96512.53;5006858;28;20565;-79
2023/10/19 11:30:29;;;;;;;0.10;0.10;;;;;;;19.75;61.89;96513.03;5006843;28;20050;-81
2023/10/19 11:32:59;;;;;;;0.10;0.10;;;;;;;18.82;64.70;96517.69;5006463;28;20046;-81
2023/10/19 11:35:27;;;;;;;0.10;0.10;;;;;;;19.15;64.00;96515.47;5007357;28;20064;-82
2023/10/19 11:37:55;;;;;;;0.10;0.10;;;;;;;19.02;63.96;96519.59;5009951;28;20077;-81
2023/10/19 11:40:21;;;;;;;0.10;0.10;;;;;;;19.15;64.71;96521.75;5008583;28;20054;-80
2023/10/19 11:42:48;;;;;;;0.10;0.10;;;;;;;19.02;64.79;96520.50;5008688;28;20026;-81
2023/10/19 11:45:13;;;;;;;0.10;0.10;;;;;;;18.63;66.57;96518.38;5003940;28;20038;-80
2023/10/19 11:47:39;;;;;;;0.10;0.10;;;;;;;18.28;70.30;96522.41;5008498;28;20035;-80
2023/10/19 11:50:05;;;;;;;0.10;0.10;;;;;;;17.91;71.16;96517.44;5007437;28;20073;-82
2023/10/19 11:52:31;;;;;;;0.10;0.10;;;;;;;17.63;75.59;96520.19;5009936;28;20042;-80
2023/10/19 11:54:57;;;;;;;0.10;0.10;;;;;;;17.32;73.47;96523.03;5004486;28;20061;-80
2023/10/19 11:57:24;;;;;;;0.10;0.10;;;;;;;17.17;75.61;96519.91;5003161;28;20487;-79